Impacts TAF Board
For situational awareness. Not to be used for flight planning purposes.
IDs:

KVCT - Victoria Rgnl, TX, US

Issued at 1720 UTC 21 May 2022
Updated at 2220 UTC 21 May 2022
Potential Impact None Slight Moderate High
Time2151Z 21/23Z 22/00Z 22/01Z 22/02Z 22/03Z 22/04Z 22/05Z 22/06Z 22/07Z 22/08Z 22/09Z 22/10Z 22/11Z>>
Type OBS PRVL PRVL PRVL PRVL PRVL PRVL PRVL
  [TEMP]  
PRVL
  [TEMP]  
PRVL
  [TEMP]  
PRVL
  [TEMP]  
PRVL PRVL PRVL
VIS 9 >6 >6 >6 >6 >6 >6 >6
  [4]  
>6
  [4]  
>6
  [4]  
>6
  [4]  
4 4 4
CIG 36 -- -- -- 35 35 35 15
  [15]  
15
  [15]  
15
  [15]  
15
  [15]  
11 11 11
Cover OVC SKC SKC SKC BKN BKN BKN BKN
  [BKN]  
BKN
  [BKN]  
BKN
  [BKN]  
BKN
  [BKN]  
BKN BKN BKN
FltCat VFR VFR VFR VFR VFR VFR VFR MVFR
  [MVFR]  
MVFR
  [MVFR]  
MVFR
  [MVFR]  
MVFR
  [MVFR]  
MVFR MVFR MVFR
WX -- -- -- -- -- -- -- VCSH
  [TSRA]  
VCSH
  [TSRA]  
VCSH
  [TSRA]  
VCSH
  [TSRA]  
TSRA TSRA TSRA
WDir 140 150 150 150 100 100 100 30
[30]
30
[30]
30
[30]
30
[30]
20 20 20
WSpd 17 18 18 18 12 12 12 11
  [11]  
11
  [11]  
11
  [11]  
11
  [11]  
13 13 13
WGst 27 24 24 24 -- -- -- --
  [--]  
--
  [--]  
--
  [--]  
--
  [--]  
-- -- --
WSHgt -- -- -- -- -- -- -- --
[--]
--
[--]
--
[--]
--
[--]
-- -- --
WSDir -- -- -- -- -- -- -- --
[--]
--
[--]
--
[--]
--
[--]
-- -- --
WSSpd -- -- -- -- -- -- -- --
[--]
--
[--]
--
[--]
--
[--]
-- -- --
Raw TAF
KVCT 211720Z 2118/2218 15018G24KT P6SM SKC
  FM220200 10012KT P6SM SCT020 BKN035
  FM220500 03011KT P6SM VCSH BKN015
  TEMPO 2205/2209 4SM TSRA BKN015CB
  FM220900 02013KT 4SM TSRA BKN011CB


Raw METAR
KVCT 212151Z 14017G27KT 9SM SCT030 OVC036 34/24 A2981 RMK AO2 PK WND 13027/2116 SLP090 T03390244
KVCT 212051Z 11017G26KT 9SM FEW027 BKN035 OVC050 34/25 A2981 RMK AO2 PK WND 14027/2001 SLP093 T03390250 58008
KVCT 211951Z 13017G25KT 9SM FEW035 BKN045 34/25 A2983 RMK AO2 PK WND 17028/1926 SLP097 T03440250

METAR Board
Radar Display
Forecast Discussion
For situational awareness. Not to be used for flight planning purposes.